Time;durP1;ratioP1;P1;durP2;ratioP2;P2;SDS_P1;SDS_P2;PMS_P1;PMS_P2;Temp;Humidity;BMP_temperature;BMP_pressure;BME280_temperature;BME280_humidity;BME280_pressure;Samples;Min_cycle;Max_cycle;Signal;HPM_P1;HPM_P2
2022/03/16 00:01:28;;;;;;;30.23;18.13;;;6.70;99.90;;;;;;4863576;29;20097;-87
2022/03/16 00:03:54;;;;;;;32.37;17.33;;;5.60;99.90;;;;;;4870483;29;20049;-87
2022/03/16 00:06:20;;;;;;;28.53;15.97;;;6.20;99.90;;;;;;4831295;29;20409;-87
2022/03/16 00:08:45;;;;;;;22.63;13.73;;;5.60;99.90;;;;;;4846816;29;20045;-87
2022/03/16 00:11:11;;;;;;;24.40;14.13;;;6.40;99.90;;;;;;4849732;29;20060;-87
2022/03/16 00:13:37;;;;;;;25.03;13.60;;;5.40;99.90;;;;;;4846384;29;20037;-87
2022/03/16 00:16:03;;;;;;;18.30;11.40;;;5.40;99.90;;;;;;4881976;29;20049;-87
2022/03/16 00:18:28;;;;;;;19.43;12.80;;;5.30;99.90;;;;;;4863588;29;20056;-87
2022/03/16 00:20:55;;;;;;;24.40;14.70;;;5.30;99.90;;;;;;4845261;29;20140;-87
2022/03/16 00:23:21;;;;;;;20.55;14.23;;;5.20;99.90;;;;;;4873219;29;20055;-87
2022/03/16 00:25:47;;;;;;;23.87;14.70;;;5.20;99.90;;;;;;4865657;29;20048;-87
2022/03/16 00:28:13;;;;;;;24.40;15.83;;;5.20;99.90;;;;;;4864094;29;20508;-86
2022/03/16 00:30:39;;;;;;;22.00;15.03;;;5.60;99.90;;;;;;4872605;29;20059;-87
2022/03/16 00:33:05;;;;;;;24.55;15.07;;;5.20;99.90;;;;;;4873919;29;20483;-87
2022/03/16 00:35:31;;;;;;;32.38;17.58;;;5.20;99.90;;;;;;4865489;29;20059;-87
2022/03/16 00:37:57;;;;;;;33.47;16.13;;;5.10;99.90;;;;;;4883702;29;20404;-87
2022/03/16 00:40:22;;;;;;;32.87;16.60;;;5.10;99.90;;;;;;4861098;29;20297;-86
2022/03/16 00:42:48;;;;;;;30.20;16.13;;;5.10;99.90;;;;;;4888094;29;20120;-87
2022/03/16 00:45:14;;;;;;;28.37;16.07;;;6.30;99.90;;;;;;4865242;29;20389;-84
2022/03/16 00:47:40;;;;;;;33.63;16.83;;;5.10;99.90;;;;;;4890777;29;20488;-86
2022/03/16 00:50:06;;;;;;;30.83;16.20;;;5.10;99.90;;;;;;4870561;29;20055;-87
2022/03/16 00:52:32;;;;;;;30.45;16.13;;;5.10;99.90;;;;;;4881978;29;20507;-87
2022/03/16 00:54:58;;;;;;;31.48;16.50;;;5.20;99.90;;;;;;4858469;29;20076;-86
2022/03/16 00:57:24;;;;;;;28.70;16.47;;;5.00;99.90;;;;;;4862865;29;20053;-86
2022/03/16 00:59:50;;;;;;;31.37;16.40;;;5.10;99.90;;;;;;4846287;29;20144;-86
2022/03/16 01:02:15;;;;;;;30.50;17.43;;;5.10;99.90;;;;;;4845956;29;20544;-84
2022/03/16 01:04:41;;;;;;;32.17;17.53;;;5.10;99.90;;;;;;4854944;29;20057;-87
2022/03/16 01:07:07;;;;;;;27.73;16.17;;;5.10;99.90;;;;;;4831037;29;20065;-86
2022/03/16 01:09:34;;;;;;;22.47;13.57;;;5.00;99.90;;;;;;4887087;29;20840;-87
2022/03/16 01:12:01;;;;;;;;;;;5.00;99.90;;;;;;4831156;29;20085;-86
2022/03/16 01:14:27;;;;;;;20.85;13.05;;;4.90;99.90;;;;;;4857587;29;19991;-86
2022/03/16 01:16:52;;;;;;;21.97;14.67;;;6.00;99.90;;;;;;4830772;29;20537;-87
2022/03/16 01:19:18;;;;;;;32.53;16.53;;;4.80;99.90;;;;;;4824816;29;20109;-84
2022/03/16 01:21:44;;;;;;;33.10;16.93;;;4.20;99.90;;;;;;4856927;29;20050;-86
2022/03/16 01:24:10;;;;;;;23.23;13.70;;;4.80;99.90;;;;;;4834848;29;20046;-87
2022/03/16 01:26:36;;;;;;;26.67;14.13;;;4.80;99.90;;;;;;4859975;29;20057;-87
2022/03/16 01:29:02;;;;;;;26.90;14.27;;;4.80;99.90;;;;;;4858804;29;20293;-86
2022/03/16 01:31:28;;;;;;;24.03;15.33;;;5.20;99.90;;;;;;4860579;29;20075;-87
2022/03/16 01:33:54;;;;;;;26.53;12.80;;;4.70;99.90;;;;;;4856312;29;20054;-86
2022/03/16 01:36:20;;;;;;;18.70;12.63;;;5.50;99.90;;;;;;4870710;29;20489;-84
2022/03/16 01:38:46;;;;;;;24.33;13.35;;;4.60;99.90;;;;;;4859135;29;20049;-87
2022/03/16 01:41:12;;;;;;;24.90;12.23;;;4.50;99.90;;;;;;4857028;29;20245;-87
2022/03/16 01:43:38;;;;;;;29.55;14.48;;;4.40;99.90;;;;;;4845144;29;20054;-87
2022/03/16 01:46:04;;;;;;;24.13;13.50;;;5.10;99.90;;;;;;4842767;29;20056;-87
2022/03/16 01:48:30;;;;;;;24.77;14.37;;;4.20;99.90;;;;;;4859477;29;20090;-86
2022/03/16 01:50:56;;;;;;;22.60;12.73;;;4.20;99.90;;;;;;4863938;29;20111;-86
2022/03/16 01:53:21;;;;;;;24.00;14.27;;;5.40;99.90;;;;;;4878243;29;20511;-84
2022/03/16 01:55:50;;;;;;;29.20;14.85;;;4.20;99.90;;;;;;4851470;29;20052;-86
2022/03/16 01:58:17;;;;;;;25.75;15.35;;;4.20;99.90;;;;;;4871838;29;20115;-87
2022/03/16 02:00:43;;;;;;;24.25;13.73;;;4.20;99.90;;;;;;4864372;29;20049;-86
2022/03/16 02:03:09;;;;;;;26.52;14.30;;;4.20;99.90;;;;;;4876997;29;20049;-86
2022/03/16 02:05:37;;;;;;;25.63;14.05;;;4.20;99.90;;;;;;4833655;29;20057;-86
2022/03/16 02:08:05;;;;;;;28.00;14.73;;;4.20;99.90;;;;;;4865031;29;20049;-86
2022/03/16 02:10:31;;;;;;;21.92;12.90;;;4.20;99.90;;;;;;4847702;29;20064;-87
2022/03/16 02:12:57;;;;;;;21.35;12.85;;;4.20;99.90;;;;;;4851807;29;20099;-87
2022/03/16 02:15:24;;;;;;;22.33;12.53;;;4.10;99.90;;;;;;4829542;29;20400;-85
2022/03/16 02:17:53;;;;;;;26.10;15.82;;;4.10;99.90;;;;;;4848470;29;20048;-87
2022/03/16 02:20:19;;;;;;;26.65;13.32;;;4.10;99.90;;;;;;4844780;29;20053;-86
2022/03/16 02:22:57;;;;;;;27.43;14.23;;;4.00;99.90;;;;;;4853681;29;20047;-87
2022/03/16 02:25:27;;;;;;;25.20;14.57;;;4.00;99.90;;;;;;4880517;29;20136;-85
2022/03/16 02:27:54;;;;;;;68.82;20.27;;;4.00;99.90;;;;;;4856763;29;20065;-87
2022/03/16 02:30:24;;;;;;;24.80;13.05;;;3.90;99.90;;;;;;4862959;29;20061;-87
2022/03/16 02:32:50;;;;;;;23.30;13.30;;;3.90;99.90;;;;;;4874490;29;20051;-87
2022/03/16 02:35:16;;;;;;;22.33;14.30;;;3.80;99.90;;;;;;4860196;29;20057;-87
2022/03/16 02:37:42;;;;;;;19.48;12.38;;;3.80;99.90;;;;;;4891307;29;20045;-87
2022/03/16 02:40:11;;;;;;;23.75;13.68;;;3.80;99.90;;;;;;4877408;29;20532;-87
2022/03/16 02:42:37;;;;;;;20.65;12.15;;;3.80;99.90;;;;;;4860741;29;20044;-87
2022/03/16 02:45:05;;;;;;;18.83;12.23;;;3.70;99.90;;;;;;4854393;29;20037;-87
2022/03/16 02:47:31;;;;;;;19.58;12.40;;;3.60;99.90;;;;;;4854278;29;20301;-86
2022/03/16 02:49:57;;;;;;;26.20;13.53;;;4.60;99.90;;;;;;4862181;29;20045;-87
2022/03/16 02:52:23;;;;;;;22.95;12.88;;;3.60;99.90;;;;;;4862209;29;20055;-87
2022/03/16 02:54:49;;;;;;;30.30;13.47;;;3.50;99.90;;;;;;4862034;29;20048;-87
2022/03/16 02:57:16;;;;;;;20.52;11.23;;;3.50;99.90;;;;;;4859318;29;20057;-87
2022/03/16 02:59:45;;;;;;;23.15;13.43;;;3.90;99.90;;;;;;4828867;29;20390;-87
2022/03/16 03:02:11;;;;;;;22.55;12.05;;;3.80;99.90;;;;;;4854691;29;20049;-87
2022/03/16 03:04:37;;;;;;;24.88;12.52;;;3.40;99.90;;;;;;4874549;29;20076;-87
2022/03/16 03:07:05;;;;;;;15.73;8.80;;;3.40;99.90;;;;;;4861710;29;20057;-87
2022/03/16 03:09:31;;;;;;;15.10;8.65;;;3.30;99.90;;;;;;4857340;29;20349;-84
2022/03/16 03:11:59;;;;;;;20.95;10.68;;;3.20;99.90;;;;;;4871073;29;20049;-87
2022/03/16 03:14:26;;;;;;;17.95;9.68;;;3.30;99.90;;;;;;4878010;29;20056;-87
2022/03/16 03:16:51;;;;;;;;;;;3.20;99.90;;;;;;4857428;29;20128;-87
2022/03/16 03:19:17;;;;;;;19.13;10.20;;;4.10;99.90;;;;;;4862646;29;20006;-87
2022/03/16 03:21:43;;;;;;;18.55;9.43;;;3.60;99.90;;;;;;4872185;29;20470;-87
2022/03/16 03:24:09;;;;;;;19.95;10.82;;;3.10;99.90;;;;;;4865374;29;20045;-87
2022/03/16 03:26:35;;;;;;;56.60;17.08;;;3.10;99.90;;;;;;4860277;29;20056;-84
2022/03/16 03:29:01;;;;;;;76.07;16.10;;;3.00;99.90;;;;;;4858187;29;20048;-87
2022/03/16 03:31:27;;;;;;;50.33;15.85;;;3.00;99.90;;;;;;4828549;29;20057;-87
2022/03/16 03:33:53;;;;;;;42.67;13.53;;;3.40;99.90;;;;;;4847249;29;20045;-86
2022/03/16 03:36:18;;;;;;;27.30;12.50;;;2.90;99.90;;;;;;4862338;29;20166;-86
2022/03/16 03:38:44;;;;;;;28.00;12.67;;;2.90;99.90;;;;;;4854841;29;20075;-86
2022/03/16 03:41:10;;;;;;;20.02;11.70;;;2.90;99.90;;;;;;4862283;29;20060;-87
2022/03/16 03:43:36;;;;;;;30.57;11.57;;;3.90;99.90;;;;;;4876940;29;20053;-84
2022/03/16 03:46:01;;;;;;;17.85;9.68;;;2.50;99.90;;;;;;4875815;29;20840;-87
2022/03/16 03:48:27;;;;;;;19.67;9.63;;;2.70;99.90;;;;;;4846463;29;20045;-87
2022/03/16 03:50:53;;;;;;;17.07;10.23;;;2.70;99.90;;;;;;4846238;29;20045;-87
2022/03/16 03:53:18;;;;;;;23.40;10.17;;;1.60;99.90;;;;;;4888565;29;20100;-87
2022/03/16 03:55:44;;;;;;;19.10;9.67;;;2.70;99.90;;;;;;4869645;29;20057;-87
2022/03/16 03:58:10;;;;;;;11.20;8.60;;;2.70;99.90;;;;;;4875030;29;20076;-87
2022/03/16 04:00:35;;;;;;;19.53;10.30;;;3.40;99.90;;;;;;4880383;29;20131;-86
2022/03/16 04:03:01;;;;;;;26.80;9.00;;;2.60;99.90;;;;;;4862143;29;20133;-86
2022/03/16 04:05:27;;;;;;;24.57;9.33;;;3.30;99.90;;;;;;4861976;29;20492;-87
2022/03/16 04:07:53;;;;;;;49.17;13.23;;;2.50;99.90;;;;;;4849137;29;20068;-87
2022/03/16 04:10:18;;;;;;;47.73;13.23;;;2.50;99.90;;;;;;4843589;29;20045;-86
2022/03/16 04:12:44;;;;;;;29.07;10.93;;;3.70;99.90;;;;;;4873729;29;20061;-87
2022/03/16 04:15:11;;;;;;;16.90;11.57;;;2.50;99.90;;;;;;4869193;29;20048;-86
2022/03/16 04:17:37;;;;;;;18.10;10.77;;;2.50;99.90;;;;;;4851387;29;20116;-87
2022/03/16 04:20:03;;;;;;;17.57;11.03;;;3.40;99.90;;;;;;4869515;29;20503;-86
2022/03/16 04:22:29;;;;;;;17.70;11.63;;;2.60;99.90;;;;;;4846568;29;20056;-87
2022/03/16 04:24:56;;;;;;;24.77;14.45;;;2.70;99.90;;;;;;4868971;29;20064;-86
2022/03/16 04:27:21;;;;;;;27.45;15.13;;;3.60;99.90;;;;;;4862837;29;20386;-86
2022/03/16 04:29:50;;;;;;;22.60;14.80;;;3.10;99.90;;;;;;4866313;29;20049;-86
2022/03/16 04:32:16;;;;;;;21.38;14.07;;;4.10;99.90;;;;;;4843908;29;20489;-87
2022/03/16 04:34:42;;;;;;;24.20;15.40;;;4.30;99.90;;;;;;4860729;29;20049;-84
2022/03/16 04:37:08;;;;;;;23.58;16.90;;;4.00;99.90;;;;;;4858885;29;20049;-87
2022/03/16 04:39:34;;;;;;;25.97;16.67;;;3.10;99.90;;;;;;4872040;29;20124;-86
2022/03/16 04:42:00;;;;;;;24.57;14.63;;;3.60;99.90;;;;;;4848419;29;20064;-86
2022/03/16 04:44:25;;;;;;;29.77;15.57;;;3.70;99.90;;;;;;4848342;29;20057;-87
2022/03/16 04:46:51;;;;;;;31.40;15.67;;;3.20;99.90;;;;;;4857480;29;20045;-86
2022/03/16 04:49:17;;;;;;;25.27;15.07;;;3.20;99.90;;;;;;4873411;29;20052;-87
2022/03/16 04:51:42;;;;;;;30.45;17.67;;;3.20;99.90;;;;;;4852858;29;20077;-87
2022/03/16 04:54:08;;;;;;;24.52;15.55;;;2.70;99.90;;;;;;4835314;29;20056;-87
2022/03/16 04:56:35;;;;;;;22.00;13.70;;;3.20;99.90;;;;;;4889197;29;20045;-87
2022/03/16 04:59:01;;;;;;;23.08;14.25;;;3.20;99.90;;;;;;4864448;29;20059;-87
2022/03/16 05:01:27;;;;;;;28.13;14.65;;;3.50;99.90;;;;;;4863770;29;20064;-87
2022/03/16 05:03:53;;;;;;;20.17;13.38;;;3.20;99.90;;;;;;4867946;29;20048;-86
2022/03/16 05:06:19;;;;;;;24.80;13.77;;;3.20;99.90;;;;;;4876163;29;20071;-87
2022/03/16 05:08:47;;;;;;;24.35;14.10;;;4.30;99.90;;;;;;4851970;29;20081;-87
2022/03/16 05:11:14;;;;;;;19.58;14.18;;;3.70;99.90;;;;;;4858074;29;20045;-87
2022/03/16 05:13:40;;;;;;;26.10;13.13;;;3.10;99.90;;;;;;4833434;29;20053;-87
2022/03/16 05:16:07;;;;;;;32.05;14.00;;;4.20;99.90;;;;;;4863624;29;20530;-87
2022/03/16 05:18:33;;;;;;;56.95;17.52;;;3.10;99.90;;;;;;4849829;29;20053;-87
2022/03/16 05:20:59;;;;;;;37.08;13.52;;;4.30;99.90;;;;;;4878979;29;20053;-87
2022/03/16 05:23:25;;;;;;;49.22;13.80;;;3.80;99.90;;;;;;4830660;29;20512;-86
2022/03/16 05:25:51;;;;;;;33.93;13.60;;;3.20;99.90;;;;;;4881554;29;20052;-85
2022/03/16 05:28:17;;;;;;;40.88;11.50;;;3.70;99.90;;;;;;4845515;29;20117;-87
2022/03/16 05:30:44;;;;;;;26.08;12.88;;;2.90;99.90;;;;;;4856256;29;20045;-86
2022/03/16 05:33:09;;;;;;;27.10;12.52;;;2.90;99.90;;;;;;4861609;29;20073;-87
2022/03/16 05:35:35;;;;;;;46.17;13.07;;;2.90;99.90;;;;;;4876392;29;20076;-86
2022/03/16 05:38:05;;;;;;;37.87;12.23;;;3.10;99.90;;;;;;4850213;29;20062;-86
2022/03/16 05:40:31;;;;;;;23.92;11.02;;;3.80;99.90;;;;;;4858606;29;20104;-86
2022/03/16 05:42:57;;;;;;;27.10;12.33;;;3.90;99.90;;;;;;4852002;29;20125;-85
2022/03/16 05:45:23;;;;;;;16.27;10.37;;;2.80;99.90;;;;;;4839918;29;20048;-86
2022/03/16 05:47:48;;;;;;;18.30;10.93;;;3.90;99.90;;;;;;4871429;29;20509;-86
2022/03/16 05:50:14;;;;;;;15.25;9.95;;;3.00;99.90;;;;;;4865472;29;20052;-86
2022/03/16 05:52:43;;;;;;;16.38;9.90;;;2.80;99.90;;;;;;4836081;29;20045;-86
2022/03/16 05:55:10;;;;;;;19.97;11.70;;;2.90;99.90;;;;;;4872146;29;20055;-85
2022/03/16 05:57:39;;;;;;;14.38;9.80;;;3.00;99.90;;;;;;4876156;29;20403;-86
2022/03/16 06:00:11;;;;;;;19.63;11.70;;;2.90;99.90;;;;;;4860898;29;20056;-85
2022/03/16 06:02:37;;;;;;;21.88;11.90;;;2.90;99.90;;;;;;4882417;29;20049;-86
2022/03/16 06:05:03;;;;;;;19.90;11.23;;;3.00;99.90;;;;;;4876984;29;20137;-86
2022/03/16 06:07:28;;;;;;;15.65;11.70;;;3.00;99.90;;;;;;4844592;29;20551;-85
2022/03/16 06:09:54;;;;;;;20.58;11.15;;;3.80;99.90;;;;;;4831330;29;20049;-83
2022/03/16 06:12:20;;;;;;;18.53;11.17;;;3.10;99.90;;;;;;4893817;29;20496;-86
2022/03/16 06:14:46;;;;;;;21.48;12.10;;;3.10;99.90;;;;;;4848073;29;20077;-86
2022/03/16 06:17:11;;;;;;;20.77;10.67;;;3.20;99.90;;;;;;4868606;29;20111;-86
2022/03/16 06:19:37;;;;;;;18.23;12.63;;;3.20;99.90;;;;;;4862656;29;20048;-85
2022/03/16 06:22:05;;;;;;;21.15;11.07;;;3.20;99.90;;;;;;4860791;29;20560;-85
2022/03/16 06:24:31;;;;;;;22.42;12.70;;;3.20;99.90;;;;;;4827793;29;20056;-86
2022/03/16 06:26:57;;;;;;;19.57;12.07;;;3.30;99.90;;;;;;4873519;29;20080;-86
2022/03/16 06:29:23;;;;;;;19.27;12.52;;;3.70;99.90;;;;;;4823029;29;20084;-86
2022/03/16 06:31:49;;;;;;;17.80;10.85;;;3.40;99.90;;;;;;4849710;29;20055;-87
2022/03/16 06:34:14;;;;;;;23.67;12.10;;;3.40;99.90;;;;;;4858138;29;20413;-88
2022/03/16 06:36:40;;;;;;;18.57;12.07;;;4.10;99.90;;;;;;4822824;29;20048;-88
2022/03/16 06:39:06;;;;;;;18.63;12.23;;;3.50;99.90;;;;;;4868634;29;20135;-86
2022/03/16 06:41:32;;;;;;;24.17;12.83;;;3.60;99.90;;;;;;4833730;29;20049;-84
2022/03/16 06:43:57;;;;;;;21.37;12.90;;;3.60;99.90;;;;;;4844270;29;20053;-86
2022/03/16 06:46:23;;;;;;;21.77;12.27;;;3.70;99.90;;;;;;4834672;29;20124;-87
2022/03/16 06:48:49;;;;;;;25.23;12.57;;;3.70;99.90;;;;;;4863477;29;20059;-87
2022/03/16 06:51:15;;;;;;;20.02;13.13;;;3.70;99.90;;;;;;4862976;29;20575;-86
2022/03/16 06:53:40;;;;;;;21.75;13.02;;;4.00;99.90;;;;;;4858238;29;20045;-87
2022/03/16 06:56:09;;;;;;;19.05;13.95;;;4.40;99.90;;;;;;4859348;29;20409;-83
2022/03/16 06:58:35;;;;;;;21.52;13.15;;;4.00;99.90;;;;;;4864330;29;20477;-86
2022/03/16 07:01:00;;;;;;;21.33;12.57;;;4.00;99.90;;;;;;4855688;29;20041;-85
2022/03/16 07:03:26;;;;;;;21.23;14.37;;;4.10;99.90;;;;;;4860145;29;20385;-86
2022/03/16 07:05:52;;;;;;;22.67;12.75;;;4.10;99.90;;;;;;4871594;29;20053;-92
2022/03/16 07:08:17;;;;;;;25.00;13.55;;;4.20;99.90;;;;;;4842673;29;20055;-87
2022/03/16 07:10:44;;;;;;;19.85;12.98;;;3.30;99.90;;;;;;4893125;29;20053;-89
2022/03/16 07:13:13;;;;;;;22.48;14.43;;;4.30;99.90;;;;;;4861629;29;20109;-86
2022/03/16 07:15:40;;;;;;;27.88;14.27;;;4.30;99.90;;;;;;4848478;29;20087;-89
2022/03/16 07:18:05;;;;;;;;;;;4.30;99.90;;;;;;4883907;29;20556;-86
2022/03/16 07:20:32;;;;;;;19.73;12.88;;;4.40;99.90;;;;;;4843259;29;20002;-88
2022/03/16 07:23:27;;;;;;;24.52;14.02;;;4.40;99.90;;;;;;4874580;29;20049;-87
2022/03/16 07:25:53;;;;;;;22.17;12.95;;;4.50;99.90;;;;;;4836995;29;20107;-94
2022/03/16 07:28:20;;;;;;;19.47;12.83;;;4.80;99.90;;;;;;4876831;29;20045;-90
2022/03/16 07:30:47;;;;;;;20.08;12.27;;;4.60;99.90;;;;;;4885959;29;20049;-87
2022/03/16 07:33:13;;;;;;;27.60;14.43;;;5.60;99.90;;;;;;4856344;29;20080;-89
2022/03/16 07:35:39;;;;;;;18.37;13.13;;;4.80;99.90;;;;;;4855489;29;20521;-91
2022/03/16 07:38:06;;;;;;;25.80;14.50;;;4.90;99.90;;;;;;4848827;29;20496;-87
2022/03/16 07:40:35;;;;;;;21.70;13.85;;;6.30;99.90;;;;;;4861341;29;20470;-91
2022/03/16 07:43:01;;;;;;;28.83;15.10;;;5.30;99.90;;;;;;4847197;29;20054;-90
2022/03/16 07:45:27;;;;;;;21.85;15.02;;;5.60;99.90;;;;;;4841251;29;20046;-90
2022/03/16 07:47:53;;;;;;;21.90;14.10;;;5.90;99.90;;;;;;4855533;29;20053;-91
2022/03/16 07:50:19;;;;;;;21.07;13.60;;;6.10;99.90;;;;;;4858948;29;20049;-90
2022/03/16 07:52:45;;;;;;;22.48;13.95;;;6.40;99.90;;;;;;4844931;29;20057;-90
2022/03/16 07:55:13;;;;;;;20.60;13.38;;;6.80;99.90;;;;;;4857623;29;20523;-87
2022/03/16 07:57:39;;;;;;;23.08;13.88;;;7.10;99.90;;;;;;4832835;29;20377;-88
2022/03/16 08:00:07;;;;;;;19.03;11.93;;;7.90;99.90;;;;;;4878926;29;20056;-88
2022/03/16 08:02:34;;;;;;;19.70;13.07;;;7.30;99.90;;;;;;4845476;29;20053;-88
2022/03/16 08:05:02;;;;;;;20.60;12.60;;;7.20;99.90;;;;;;4873879;29;20113;-88
2022/03/16 08:07:29;;;;;;;15.82;11.57;;;7.20;99.90;;;;;;4856198;29;20064;-87
2022/03/16 08:09:56;;;;;;;20.42;12.45;;;7.20;99.90;;;;;;4852223;29;20089;-89
2022/03/16 08:12:22;;;;;;;19.25;12.00;;;7.20;99.90;;;;;;4872664;29;20052;-83
2022/03/16 08:14:51;;;;;;;14.25;10.70;;;7.30;99.90;;;;;;4870302;29;20048;-88
2022/03/16 08:17:17;;;;;;;17.17;12.00;;;7.50;99.90;;;;;;4861852;29;20055;-93
2022/03/16 08:19:43;;;;;;;17.43;12.50;;;8.10;99.90;;;;;;4890845;29;20548;-90
2022/03/16 08:22:09;;;;;;;17.35;10.88;;;7.70;99.90;;;;;;4857091;29;20053;-90
2022/03/16 08:24:35;;;;;;;14.77;10.20;;;7.90;99.90;;;;;;4882293;29;20113;-87
2022/03/16 08:27:01;;;;;;;15.05;10.73;;;8.10;99.90;;;;;;4866490;29;20061;-87
2022/03/16 08:29:26;;;;;;;11.37;9.43;;;8.30;99.90;;;;;;4889437;29;20049;-87
2022/03/16 08:31:53;;;;;;;18.10;11.50;;;8.50;99.90;;;;;;4877988;29;20041;-87
2022/03/16 08:34:19;;;;;;;18.65;11.70;;;8.70;99.90;;;;;;4853749;29;20131;-87
2022/03/16 08:36:45;;;;;;;18.57;11.30;;;9.00;99.90;;;;;;4877748;29;20140;-89
2022/03/16 08:39:11;;;;;;;21.50;12.07;;;9.40;99.90;;;;;;4876121;29;20041;-87
2022/03/16 08:41:36;;;;;;;18.70;11.40;;;9.60;99.90;;;;;;4880625;29;20052;-89
2022/03/16 08:44:02;;;;;;;16.40;11.53;;;9.90;99.90;;;;;;4873151;29;20480;-87
2022/03/16 08:46:29;;;;;;;13.90;10.97;;;10.10;99.90;;;;;;4873431;29;20045;-87
2022/03/16 08:48:55;;;;;;;23.67;12.90;;;10.30;99.90;;;;;;4871029;29;20293;-87
2022/03/16 08:51:21;;;;;;;19.10;11.77;;;10.50;99.90;;;;;;4866082;29;20052;-89
2022/03/16 08:53:47;;;;;;;16.73;11.27;;;10.70;99.90;;;;;;4851248;29;20820;-86
2022/03/16 08:56:13;;;;;;;15.97;10.80;;;10.90;99.90;;;;;;4863254;29;20044;-86
2022/03/16 08:58:39;;;;;;;17.50;11.27;;;11.20;99.90;;;;;;4881789;29;20084;-87
2022/03/16 09:01:05;;;;;;;21.10;11.73;;;11.30;99.90;;;;;;4868939;29;20092;-87
2022/03/16 09:03:31;;;;;;;19.02;11.48;;;11.50;99.90;;;;;;4869425;29;20044;-87
2022/03/16 09:05:58;;;;;;;17.27;11.30;;;11.50;99.90;;;;;;4862743;29;20056;-93
2022/03/16 09:08:24;;;;;;;;;;;11.50;99.90;;;;;;4870970;29;20058;-95
2022/03/16 09:10:50;;;;;;;17.55;11.65;;;11.70;99.90;;;;;;4867101;29;20307;-94
2022/03/16 09:13:17;;;;;;;23.35;11.57;;;11.60;99.90;;;;;;4851742;29;20072;-92
2022/03/16 09:15:44;;;;;;;23.83;11.90;;;11.60;99.90;;;;;;4878206;29;20107;-94
2022/03/16 09:18:10;;;;;;;17.67;11.00;;;11.60;99.90;;;;;;4876018;29;20048;-93
2022/03/16 09:20:37;;;;;;;17.20;11.23;;;11.60;99.90;;;;;;4884909;29;20049;-93
2022/03/16 09:23:03;;;;;;;17.42;11.35;;;11.60;99.90;;;;;;4857186;29;20044;-89
2022/03/16 09:25:28;;;;;;;17.80;10.27;;;11.70;99.90;;;;;;4872935;29;20141;-88
2022/03/16 09:27:54;;;;;;;16.13;10.23;;;11.90;99.90;;;;;;4866345;29;20052;-84
2022/03/16 09:30:23;;;;;;;17.30;11.63;;;12.00;99.90;;;;;;4874891;29;20048;-83
2022/03/16 09:32:48;;;;;;;16.33;9.93;;;12.10;99.90;;;;;;4849516;29;20584;-85
2022/03/16 09:35:22;;;;;;;15.83;8.97;;;12.10;99.90;;;;;;4848351;29;20136;-90
2022/03/16 09:37:48;;;;;;;14.05;8.90;;;12.10;99.90;;;;;;4847234;29;20060;-89
2022/03/16 09:40:17;;;;;;;15.27;8.95;;;12.10;99.90;;;;;;4863217;29;20139;-88
2022/03/16 09:42:48;;;;;;;15.27;9.40;;;12.10;99.90;;;;;;4859095;29;20160;-91
2022/03/16 09:45:21;;;;;;;14.40;8.55;;;12.20;99.90;;;;;;4876737;29;20054;-86
2022/03/16 09:47:50;;;;;;;12.38;8.02;;;12.30;99.90;;;;;;4861646;29;20088;-87
2022/03/16 09:50:19;;;;;;;13.45;7.50;;;12.40;99.90;;;;;;4853790;29;20523;-87
2022/03/16 09:52:46;;;;;;;10.25;7.97;;;12.50;99.90;;;;;;4863806;29;20049;-88
2022/03/16 09:55:13;;;;;;;10.02;6.25;;;12.70;99.90;;;;;;4890071;29;20044;-87
2022/03/16 09:57:41;;;;;;;9.63;6.72;;;13.00;99.90;;;;;;4855253;29;20045;-87
2022/03/16 10:00:11;;;;;;;8.70;7.20;;;13.20;99.90;;;;;;4857180;29;20108;-87
2022/03/16 10:02:37;;;;;;;11.48;7.05;;;13.40;99.90;;;;;;4843521;29;20053;-90
2022/03/16 10:05:09;;;;;;;10.33;6.87;;;13.60;99.90;;;;;;4877797;29;20058;-94
2022/03/16 10:08:05;;;;;;;8.00;5.15;;;13.50;99.90;;;;;;4872855;29;20061;-87
2022/03/16 10:14:28;;;;;;;6.60;5.68;;;13.40;99.90;;;;;;4876294;29;20471;-89
2022/03/16 10:20:28;;;;;;;;;;;13.40;99.90;;;;;;4890174;29;20097;-90
2022/03/16 10:23:07;;;;;;;9.30;4.78;;;13.40;99.90;;;;;;4863399;29;19988;-89
2022/03/16 10:26:00;;;;;;;10.27;5.43;;;13.30;99.90;;;;;;4874219;29;20052;-89
2022/03/16 10:28:35;;;;;;;8.75;5.72;;;13.80;99.90;;;;;;4866070;29;20057;-90
2022/03/16 10:31:15;;;;;;;8.00;5.53;;;13.70;99.90;;;;;;4853292;29;20400;-91
2022/03/16 10:33:59;;;;;;;;;;;;;;;;;;;;;
2022/03/16 10:36:49;;;;;;;;;;;;;;;;;;;;;
2022/03/16 10:39:46;;;;;;;10.02;5.55;;;13.40;99.90;;;;;;4864209;29;20094;-90
2022/03/16 10:48:30;;;;;;;8.38;6.43;;;14.20;99.90;;;;;;4868050;29;20106;-90
2022/03/16 10:51:05;;;;;;;8.75;5.13;;;13.40;99.90;;;;;;4849290;29;20060;-91
2022/03/16 10:54:02;;;;;;;11.60;6.35;;;12.60;99.90;;;;;;4853079;29;20056;-90
2022/03/16 10:56:49;;;;;;;;;;;;;;;;;;;;;
2022/03/16 10:59:21;;;;;;;5.97;4.65;;;13.50;99.90;;;;;;4882749;29;20056;-90
2022/03/16 11:01:50;;;;;;;9.68;6.10;;;13.70;99.90;;;;;;4860147;29;20041;-89
2022/03/16 11:04:20;;;;;;;14.45;6.70;;;13.70;99.40;;;;;;4850970;29;20049;-88
2022/03/16 11:06:46;;;;;;;12.93;6.22;;;13.70;99.20;;;;;;4848185;29;20053;-88
2022/03/16 11:09:15;;;;;;;9.82;5.88;;;13.70;98.80;;;;;;4829322;29;20045;-88
2022/03/16 11:14:29;;;;;;;8.82;5.60;;;13.70;98.40;;;;;;4857244;29;20052;-87
2022/03/16 11:16:56;;;;;;;8.23;6.22;;;13.80;97.50;;;;;;4846421;29;20136;-87
2022/03/16 11:19:23;;;;;;;;;;;13.80;97.30;;;;;;4847361;29;20057;-86
2022/03/16 11:22:11;;;;;;;8.50;6.68;;;13.80;94.30;;;;;;4893318;29;19980;-84
2022/03/16 11:24:41;;;;;;;10.02;6.15;;;13.90;95.80;;;;;;4860212;29;20132;-91
2022/03/16 11:30:33;;;;;;;9.70;5.88;;;14.00;96.00;;;;;;4853983;29;20064;-91
2022/03/16 11:33:12;;;;;;;9.98;5.85;;;14.20;96.10;;;;;;4845124;29;20049;-87
2022/03/16 11:35:44;;;;;;;9.13;5.97;;;14.50;95.60;;;;;;4858567;29;20045;-90
2022/03/16 11:38:17;;;;;;;9.05;6.22;;;14.70;95.70;;;;;;4872783;29;20052;-88
2022/03/16 11:40:50;;;;;;;8.48;5.68;;;14.80;92.80;;;;;;4861629;29;20080;-89
2022/03/16 11:43:24;;;;;;;7.75;5.22;;;14.80;93.30;;;;;;4888567;29;20572;-88
2022/03/16 11:46:00;;;;;;;7.15;5.45;;;14.90;93.00;;;;;;4847244;29;20037;-89
2022/03/16 11:48:33;;;;;;;7.82;4.97;;;15.00;91.90;;;;;;4856880;29;20518;-89
2022/03/16 11:51:11;;;;;;;8.52;4.63;;;14.40;92.20;;;;;;4865597;29;20096;-93
2022/03/16 11:53:46;;;;;;;9.75;5.43;;;15.10;91.00;;;;;;4875043;29;20077;-88
2022/03/16 11:56:23;;;;;;;6.88;4.88;;;15.10;90.10;;;;;;4871934;29;20053;-89
2022/03/16 11:58:54;;;;;;;12.48;5.68;;;15.00;90.30;;;;;;4896050;29;20060;-89
2022/03/16 12:01:28;;;;;;;6.78;4.82;;;15.00;89.20;;;;;;4874968;29;20053;-90
2022/03/16 12:04:22;;;;;;;9.25;5.95;;;15.20;89.00;;;;;;4866465;29;20041;-89
2022/03/16 12:07:12;;;;;;;10.75;5.38;;;15.20;85.30;;;;;;4857873;29;20048;-91
2022/03/16 12:09:54;;;;;;;9.15;5.35;;;15.40;86.30;;;;;;4895790;29;20144;-87
2022/03/16 12:13:09;;;;;;;11.10;5.18;;;15.40;84.50;;;;;;4875228;29;20147;-89
2022/03/16 12:15:41;;;;;;;9.00;5.40;;;15.60;81.60;;;;;;4827559;29;20117;-90
2022/03/16 12:18:07;;;;;;;14.32;5.00;;;15.60;84.70;;;;;;4834210;29;20058;-88
2022/03/16 12:20:43;;;;;;;8.77;5.90;;;15.60;84.30;;;;;;4851418;29;20576;-90
2022/03/16 12:23:45;;;;;;;8.20;4.88;;;15.70;83.30;;;;;;4871151;29;20053;-91
2022/03/16 12:30:31;;;;;;;7.28;4.95;;;16.30;79.90;;;;;;4808981;29;20075;-94
2022/03/16 12:33:11;;;;;;;10.75;5.40;;;16.10;83.80;;;;;;4843688;29;20110;-95
2022/03/16 12:35:38;;;;;;;7.80;5.40;;;16.20;83.00;;;;;;4841634;29;20090;-94
2022/03/16 12:38:10;;;;;;;10.02;6.13;;;16.30;83.00;;;;;;4861944;29;20216;-95
2022/03/16 12:42:31;;;;;;;9.23;5.70;;;16.70;82.40;;;;;;4863874;29;20045;-94
2022/03/16 12:43:28;;;;;;;11.13;6.43;;;16.40;82.20;;;;;;4864969;29;20124;-94
2022/03/16 12:46:23;;;;;;;8.10;5.75;;;16.50;82.60;;;;;;4852750;29;20049;-90
2022/03/16 12:49:02;;;;;;;12.55;6.30;;;16.60;81.00;;;;;;4875295;29;20084;-89
2022/03/16 12:51:56;;;;;;;12.13;5.72;;;16.60;80.30;;;;;;4847334;29;20045;-89
2022/03/16 12:54:48;;;;;;;10.05;6.47;;;16.50;79.30;;;;;;4855034;29;20503;-89
2022/03/16 12:57:15;;;;;;;13.18;5.47;;;16.50;77.20;;;;;;4843835;29;20057;-90
2022/03/16 12:59:55;;;;;;;14.70;6.28;;;16.60;81.40;;;;;;4879727;29;20057;-91
2022/03/16 13:02:28;;;;;;;7.80;5.32;;;16.70;79.20;;;;;;4833862;29;20085;-91
2022/03/16 13:04:58;;;;;;;8.35;5.28;;;16.80;80.80;;;;;;4846597;29;20069;-91
2022/03/16 13:07:26;;;;;;;10.80;6.35;;;16.90;80.30;;;;;;4848847;29;20056;-91
2022/03/16 13:09:54;;;;;;;10.32;6.65;;;17.00;80.50;;;;;;4878169;29;20052;-91
2022/03/16 13:12:26;;;;;;;9.43;6.15;;;16.90;80.40;;;;;;4832211;29;20061;-91
2022/03/16 13:15:02;;;;;;;9.73;6.38;;;17.10;79.60;;;;;;4832120;29;20056;-90